UPSVAC Airport Information Service

Bergen Flesland

ICAO: ENBR Country:
Latitude: 60.2833 Longitude: 5.21667
Latest Arrival : UPSE103 (EDDK-ENBR) Latest Departure : UPSE164 (ENBR-EDDK)


WX CaptureLIVE
Data provided by noaa.gov | Fetched at 09:43:21

METAR : ENBR 010920Z 18010KT 2500 -DZ BR FEW001 BKN002 05/05 Q1033 TEMPO 1200 -DZ BR RMK WIND 1200FT 20015KT

TAF : ENBR 010500Z 0106/0206 18008KT 1200 BR OVC002 BECMG 0106/0109 4000 -RA BR BKN007 TEMPO 0109/0114 1200 DZ BR BKN003 BECMG 0112/0114 9999 BKN015 TEMPO 0114/0118 BKN012 PROB30 0118/0206 2000 -DZ BR BKN004


Runway Data for ENBR
Data provided by openaviationdata.com

Runway ID Mag Var Hdg Length Elevation Surface ILS Freq ILS Id ILS Slope
17 0 171° 9789 ft 165 ft Asphalt 109.9 BR 3
35 0 351° 9789 ft 165 ft Asphalt 110.5 BG 3

Bergen Flesland,
Use only for reference purposes



Not for navigational purposes.